createdAt,value
2022-08-21T00:02:15.005Z,9.87
2022-08-21T00:04:57.027Z,11.63
2022-08-21T00:07:26.814Z,8.90
2022-08-21T00:09:55.674Z,15.77
2022-08-21T00:12:24.065Z,11.00
2022-08-21T00:14:58.042Z,10.03
2022-08-21T00:17:26.632Z,14.67
2022-08-21T00:19:54.824Z,10.23
2022-08-21T00:22:22.992Z,10.07
2022-08-21T00:24:51.170Z,12.37
2022-08-21T00:27:19.502Z,11.87
2022-08-21T00:29:47.787Z,11.00
2022-08-21T00:32:23.132Z,10.70
2022-08-21T00:34:51.582Z,11.20
2022-08-21T00:37:20.017Z,12.60
2022-08-21T00:39:49.574Z,11.30
2022-08-21T00:42:20.897Z,11.63
2022-08-21T00:44:55.423Z,10.63
2022-08-21T00:47:24.969Z,10.90
2022-08-21T00:49:53.176Z,11.67
2022-08-21T00:52:27.193Z,12.33
2022-08-21T00:54:59.326Z,13.10
2022-08-21T00:57:34.147Z,11.57
2022-08-21T01:00:08.245Z,11.27
2022-08-21T01:02:37.854Z,15.93
2022-08-21T01:05:07.077Z,13.27
2022-08-21T01:07:35.568Z,13.37
2022-08-21T01:10:04.816Z,13.63
2022-08-21T01:12:33.482Z,12.60
2022-08-21T01:15:05.267Z,13.63
2022-08-21T01:17:34.265Z,18.47
2022-08-21T01:20:09.267Z,14.30
2022-08-21T01:22:40.148Z,11.73
2022-08-21T01:25:11.781Z,9.83
2022-08-21T01:27:41.739Z,13.47
2022-08-21T01:30:17.653Z,10.73
2022-08-21T01:32:47.754Z,16.57
2022-08-21T01:35:18.699Z,10.77
2022-08-21T01:37:50.322Z,13.77
2022-08-21T01:40:20.609Z,7.80
2022-08-21T01:42:49.538Z,10.43
2022-08-21T01:45:18.656Z,11.47
2022-08-21T01:47:47.512Z,7.93
2022-08-21T01:50:21.045Z,10.13
2022-08-21T01:52:51.475Z,9.47
2022-08-21T01:55:20.808Z,9.83
2022-08-21T01:57:49.930Z,6.93
2022-08-21T02:00:24.567Z,7.97
2022-08-21T02:02:54.231Z,8.90
2022-08-21T02:05:22.769Z,6.77
2022-08-21T02:07:57.440Z,7.23
2022-08-21T02:10:30.281Z,7.20
2022-08-21T02:12:59.874Z,5.63
2022-08-21T02:15:28.728Z,9.70
2022-08-21T02:18:02.847Z,6.47
2022-08-21T02:20:36.768Z,8.47
2022-08-21T02:23:08.664Z,4.70
2022-08-21T02:25:38.263Z,6.50
2022-08-21T02:28:13.629Z,9.23
2022-08-21T02:30:47.497Z,6.07
2022-08-21T02:33:16.744Z,8.57
2022-08-21T02:35:48.312Z,7.30
2022-08-21T02:38:21.743Z,8.23
2022-08-21T02:40:52.937Z,8.37
2022-08-21T02:43:23.385Z,11.90
2022-08-21T02:45:53.325Z,8.07
2022-08-21T02:48:25.443Z,6.17
2022-08-21T02:50:58.793Z,9.87
2022-08-21T02:53:29.984Z,7.00
2022-08-21T02:56:01.285Z,7.90
2022-08-21T02:58:39.517Z,5.50
2022-08-21T03:01:10.476Z,9.00
2022-08-21T03:03:40.433Z,9.47
2022-08-21T03:06:11.571Z,7.97
2022-08-21T03:08:41.264Z,6.70
2022-08-21T03:11:10.233Z,9.40
2022-08-21T03:13:39.655Z,7.90
2022-08-21T03:16:10.646Z,8.00
2022-08-21T03:18:40.031Z,5.17
2022-08-21T03:21:08.909Z,7.10
2022-08-21T03:23:37.289Z,8.23
2022-08-21T03:26:07.140Z,5.50
2022-08-21T03:28:36.166Z,9.33
2022-08-21T03:31:04.373Z,7.93
2022-08-21T03:33:33.017Z,5.57
2022-08-21T03:36:06.508Z,6.37
2022-08-21T03:38:36.612Z,5.40
2022-08-21T03:41:08.180Z,5.33
2022-08-21T03:43:37.316Z,5.03
2022-08-21T03:46:07.127Z,11.43
2022-08-21T03:48:38.831Z,6.50
2022-08-21T03:51:08.514Z,7.43
2022-08-21T03:53:37.322Z,5.57
2022-08-21T03:56:08.775Z,5.40
2022-08-21T03:58:36.965Z,6.87
2022-08-21T04:01:08.057Z,6.53
2022-08-21T04:03:38.877Z,9.90
2022-08-21T04:06:08.616Z,5.73
2022-08-21T04:08:37.261Z,7.33
2022-08-21T04:11:08.331Z,5.93
2022-08-21T04:13:44.600Z,6.67
2022-08-21T04:16:13.469Z,5.50
2022-08-21T04:18:42.098Z,6.07
2022-08-21T04:21:13.519Z,12.20
2022-08-21T04:23:42.279Z,6.07
2022-08-21T04:26:12.319Z,7.83
2022-08-21T04:28:40.953Z,9.77
2022-08-21T04:31:11.583Z,7.07
2022-08-21T04:33:40.253Z,4.57
2022-08-21T04:36:09.241Z,12.03
2022-08-21T04:38:37.904Z,7.60
2022-08-21T04:41:13.318Z,6.77
2022-08-21T04:43:41.967Z,7.00
2022-08-21T04:46:10.209Z,6.63
2022-08-21T04:48:42.396Z,7.37
2022-08-21T04:51:17.240Z,7.03
2022-08-21T04:53:53.057Z,5.60
2022-08-21T04:56:33.821Z,4.70
2022-08-21T04:59:08.610Z,11.07
2022-08-21T05:01:41.772Z,10.13
2022-08-21T05:04:15.307Z,10.67
2022-08-21T05:06:47.649Z,6.13
2022-08-21T05:09:20.378Z,11.60
2022-08-21T05:11:51.013Z,6.97
2022-08-21T05:14:20.325Z,6.77
2022-08-21T05:16:48.719Z,5.70
2022-08-21T05:19:16.927Z,5.87
2022-08-21T05:21:48.967Z,7.23
2022-08-21T05:24:18.770Z,8.13
2022-08-21T05:26:48.015Z,8.63
2022-08-21T05:29:19.019Z,6.00
2022-08-21T05:31:48.692Z,6.20
2022-08-21T05:34:21.629Z,6.00
2022-08-21T05:36:50.370Z,7.20
2022-08-21T05:39:18.636Z,7.13
2022-08-21T05:41:46.832Z,6.17
2022-08-21T05:44:15.017Z,5.53
2022-08-21T05:46:44.466Z,4.13
2022-08-21T05:49:13.458Z,6.70
2022-08-21T05:51:42.800Z,5.03
2022-08-21T05:54:11.959Z,8.40
2022-08-21T05:56:40.144Z,6.43
2022-08-21T05:59:08.936Z,3.23
2022-08-21T06:01:37.512Z,5.73
2022-08-21T06:04:08.115Z,8.40
2022-08-21T06:06:37.022Z,6.17
2022-08-21T06:09:05.985Z,6.30
2022-08-21T06:11:35.290Z,5.73
2022-08-21T06:14:03.761Z,6.27
2022-08-21T06:16:32.318Z,8.20
2022-08-21T06:19:02.823Z,7.10
2022-08-21T06:21:33.161Z,5.10
2022-08-21T06:24:01.730Z,6.47
2022-08-21T06:26:30.194Z,5.33
2022-08-21T06:28:58.558Z,7.60
2022-08-21T06:31:29.908Z,5.00
2022-08-21T06:33:58.674Z,3.90
2022-08-21T06:36:27.083Z,5.90
2022-08-21T06:38:58.038Z,3.73
2022-08-21T06:41:27.104Z,6.17
2022-08-21T06:43:57.447Z,9.40
2022-08-21T06:46:27.698Z,4.67
2022-08-21T06:48:56.704Z,6.87
2022-08-21T06:51:26.391Z,6.67
2022-08-21T06:53:56.620Z,5.73
2022-08-21T06:56:27.845Z,6.10
2022-08-21T06:58:56.532Z,5.10
2022-08-21T07:01:28.601Z,5.70
2022-08-21T07:03:57.183Z,7.37
2022-08-21T07:06:26.039Z,5.97
2022-08-21T07:08:58.941Z,5.23
2022-08-21T07:11:28.070Z,7.67
2022-08-21T07:13:57.512Z,6.57
2022-08-21T07:16:26.089Z,7.50
2022-08-21T07:18:54.471Z,8.23
2022-08-21T07:21:25.935Z,6.20
2022-08-21T07:23:56.430Z,6.77
2022-08-21T07:26:26.860Z,6.77
2022-08-21T07:28:56.104Z,6.13
2022-08-21T07:31:28.184Z,9.60
2022-08-21T07:33:56.776Z,6.67
2022-08-21T07:36:25.436Z,5.57
2022-08-21T07:38:53.947Z,7.13
2022-08-21T07:41:26.607Z,8.63
2022-08-21T07:43:55.198Z,9.20
2022-08-21T07:46:23.473Z,6.77
2022-08-21T07:48:51.868Z,7.50
2022-08-21T07:51:27.797Z,4.97
2022-08-21T07:53:59.916Z,6.53
2022-08-21T07:56:32.797Z,9.03
2022-08-21T07:59:01.061Z,8.93
2022-08-21T08:01:29.244Z,3.50
2022-08-21T08:03:58.788Z,7.33
2022-08-21T08:06:27.262Z,6.20
2022-08-21T08:08:55.355Z,6.13
2022-08-21T08:11:23.625Z,3.67
2022-08-21T08:13:57.696Z,6.27
2022-08-21T08:16:25.927Z,7.07
2022-08-21T08:18:55.721Z,7.93
2022-08-21T08:21:24.285Z,6.10
2022-08-21T08:23:53.166Z,4.40
2022-08-21T08:26:21.371Z,4.80
2022-08-21T08:28:49.652Z,6.17
2022-08-21T08:31:19.582Z,3.77
2022-08-21T08:33:47.704Z,4.87
2022-08-21T08:36:18.318Z,5.30
2022-08-21T08:38:49.863Z,5.63
2022-08-21T08:41:23.751Z,6.47
2022-08-21T08:43:56.053Z,6.97
2022-08-21T08:46:38.025Z,6.17
2022-08-21T08:49:17.030Z,9.83
2022-08-21T08:51:56.961Z,5.87
2022-08-21T08:54:33.996Z,6.80
2022-08-21T08:57:04.089Z,3.50
2022-08-21T08:59:41.729Z,4.80
2022-08-21T09:02:16.896Z,5.33
2022-08-21T09:04:49.927Z,5.97
2022-08-21T09:07:30.587Z,5.93
2022-08-21T09:10:13.946Z,5.33
2022-08-21T09:12:57.991Z,3.33
2022-08-21T09:15:35.346Z,4.40
2022-08-21T09:18:32.452Z,5.53
2022-08-21T09:21:17.776Z,11.77
2022-08-21T09:24:00.371Z,5.03
2022-08-21T09:26:36.238Z,4.57
2022-08-21T09:29:06.689Z,5.90
2022-08-21T09:31:39.395Z,6.90
2022-08-21T09:34:14.610Z,4.67
2022-08-21T09:36:46.940Z,4.70
2022-08-21T09:39:26.634Z,6.47
2022-08-21T09:42:02.014Z,7.00
2022-08-21T09:44:34.424Z,5.40
2022-08-21T09:47:02.630Z,8.03
2022-08-21T09:49:35.469Z,5.90
2022-08-21T09:52:08.728Z,6.83
2022-08-21T09:54:42.690Z,6.77
2022-08-21T09:57:42.833Z,7.57
2022-08-21T10:00:26.406Z,9.50
2022-08-21T10:02:54.726Z,7.63
2022-08-21T10:05:29.240Z,6.70
2022-08-21T10:07:57.502Z,4.77
2022-08-21T10:10:32.828Z,9.63
2022-08-21T10:13:12.607Z,6.80
2022-08-21T10:15:52.878Z,5.37
2022-08-21T10:18:29.702Z,3.93
2022-08-21T10:21:12.040Z,4.57
2022-08-21T10:23:56.655Z,9.63
2022-08-21T10:26:46.444Z,9.00
2022-08-21T10:29:33.701Z,3.70
2022-08-21T10:32:25.710Z,3.80
2022-08-21T10:35:10.045Z,5.37
2022-08-21T10:37:58.642Z,4.57
2022-08-21T10:40:32.992Z,4.10
2022-08-21T10:43:20.857Z,5.23
2022-08-21T10:46:04.451Z,5.10
2022-08-21T10:48:40.578Z,6.17
2022-08-21T10:51:18.980Z,6.60
2022-08-21T10:54:07.521Z,6.20
2022-08-21T10:56:43.986Z,3.30
2022-08-21T10:59:30.157Z,3.40
2022-08-21T11:02:11.922Z,7.23
2022-08-21T11:04:51.829Z,5.33
2022-08-21T11:07:30.196Z,6.57
2022-08-21T11:10:15.106Z,5.27
2022-08-21T11:12:51.641Z,5.27
2022-08-21T11:15:35.824Z,4.63
2022-08-21T11:18:18.426Z,6.37
2022-08-21T11:21:03.482Z,6.80
2022-08-21T11:23:43.145Z,5.30
2022-08-21T11:26:21.335Z,5.03
2022-08-21T11:28:59.755Z,4.70
2022-08-21T11:31:49.620Z,7.87
2022-08-21T11:34:47.540Z,7.57
2022-08-21T11:37:32.290Z,6.07
2022-08-21T11:40:08.335Z,3.93
2022-08-21T11:42:52.329Z,6.47
2022-08-21T11:45:32.917Z,4.60
2022-08-21T11:48:13.246Z,4.50
2022-08-21T11:50:46.317Z,7.70
2022-08-21T11:53:22.075Z,4.90
2022-08-21T11:55:55.138Z,4.70
2022-08-21T11:58:32.301Z,4.30
2022-08-21T12:01:07.342Z,6.87
2022-08-21T12:03:41.181Z,7.50
2022-08-21T12:06:24.478Z,5.00
2022-08-21T12:09:02.496Z,4.13
2022-08-21T12:11:31.282Z,5.30
2022-08-21T12:14:14.838Z,3.97
2022-08-21T12:16:46.234Z,5.10
2022-08-21T12:19:31.869Z,4.43
2022-08-21T12:22:11.197Z,5.90
2022-08-21T12:24:44.073Z,3.13
2022-08-21T12:27:30.467Z,3.73
2022-08-21T12:30:05.493Z,4.47
2022-08-21T12:32:47.861Z,3.73
2022-08-21T12:35:25.030Z,7.70
2022-08-21T12:38:04.343Z,3.73
2022-08-21T12:40:41.235Z,5.33
2022-08-21T12:43:20.274Z,4.67
2022-08-21T12:45:53.398Z,4.17
2022-08-21T12:48:28.962Z,7.13
2022-08-21T12:51:01.527Z,5.83
2022-08-21T12:53:36.031Z,4.57
2022-08-21T12:56:06.280Z,4.87
2022-08-21T12:58:34.383Z,3.33
2022-08-21T13:01:08.213Z,4.90
2022-08-21T13:03:39.803Z,2.92
2022-08-21T13:06:10.532Z,2.75
2022-08-21T13:08:42.572Z,2.75
2022-08-21T13:11:32.430Z,2.78
2022-08-21T13:14:05.341Z,4.82
2022-08-21T13:16:36.292Z,3.55
2022-08-21T13:19:09.587Z,4.00
2022-08-21T13:21:43.851Z,3.53
2022-08-21T13:27:21.458Z,3.92
2022-08-21T13:29:54.203Z,3.65
2022-08-21T13:32:29.541Z,4.22
2022-08-21T13:34:58.682Z,2.50
2022-08-21T13:37:30.228Z,3.08
2022-08-21T13:39:58.473Z,2.33
2022-08-21T13:42:26.762Z,2.70
2022-08-21T13:44:56.030Z,3.13
2022-08-21T13:47:25.620Z,5.63
2022-08-21T13:49:59.091Z,2.22
2022-08-21T13:52:29.956Z,3.40
2022-08-21T13:55:02.327Z,3.42
2022-08-21T13:57:34.053Z,3.75
2022-08-21T14:00:22.485Z,2.78
2022-08-21T14:02:54.818Z,4.72
2022-08-21T14:05:29.306Z,3.83
2022-08-21T14:08:06.738Z,3.75
2022-08-21T14:10:43.212Z,6.95
2022-08-21T14:13:41.521Z,2.30
2022-08-21T14:16:20.337Z,3.92
2022-08-21T14:18:55.078Z,2.88
2022-08-21T14:21:37.944Z,3.92
2022-08-21T14:24:11.420Z,3.25
2022-08-21T14:26:52.406Z,3.65
2022-08-21T14:29:26.477Z,2.88
2022-08-21T14:31:58.583Z,4.55
2022-08-21T14:34:35.753Z,4.25
2022-08-21T14:37:04.427Z,4.85
2022-08-21T14:39:32.563Z,2.38
2022-08-21T14:42:01.933Z,5.53
2022-08-21T14:44:30.236Z,3.92
2022-08-21T14:46:58.551Z,4.20
2022-08-21T14:49:30.661Z,4.25
2022-08-21T14:51:59.764Z,7.68
2022-08-21T14:54:31.685Z,6.73
2022-08-21T14:57:05.269Z,4.07
2022-08-21T14:59:34.670Z,5.65
2022-08-21T15:02:05.072Z,4.68
2022-08-21T15:04:35.866Z,3.72
2022-08-21T15:07:04.875Z,2.78
2022-08-21T15:09:33.013Z,5.22
2022-08-21T15:12:03.985Z,3.22
2022-08-21T15:14:36.917Z,3.22
2022-08-21T15:17:07.577Z,2.67
2022-08-21T15:19:37.235Z,3.28
2022-08-21T15:22:18.872Z,4.25
2022-08-21T15:24:47.579Z,4.07
2022-08-21T15:27:18.571Z,5.25
2022-08-21T15:29:47.318Z,4.97
2022-08-21T15:32:23.733Z,5.57
2022-08-21T15:34:54.337Z,2.35
2022-08-21T15:37:24.094Z,3.88
2022-08-21T15:39:54.074Z,5.38
2022-08-21T15:42:24.261Z,1.63
2022-08-21T15:44:54.823Z,3.60
2022-08-21T15:47:28.353Z,3.40
2022-08-21T15:49:58.047Z,6.10
2022-08-21T15:52:26.290Z,2.60
2022-08-21T15:54:55.266Z,3.80
2022-08-21T15:57:26.248Z,2.43
2022-08-21T15:59:58.220Z,4.93
2022-08-21T16:02:29.965Z,3.10
2022-08-21T16:05:00.354Z,3.70
2022-08-21T16:07:28.789Z,1.30
2022-08-21T16:09:56.829Z,5.00
2022-08-21T16:12:32.456Z,5.07
2022-08-21T16:15:03.081Z,6.70
2022-08-21T16:17:34.431Z,3.00
2022-08-21T16:20:10.266Z,5.53
2022-08-21T16:22:44.033Z,4.03
2022-08-21T16:25:14.800Z,4.03
2022-08-21T16:27:46.882Z,5.67
2022-08-21T16:30:17.737Z,5.00
2022-08-21T16:32:47.524Z,2.70
2022-08-21T16:35:21.946Z,3.57
2022-08-21T16:37:53.204Z,3.60
2022-08-21T16:40:23.364Z,6.80
2022-08-21T16:42:52.187Z,3.90
2022-08-21T16:45:22.153Z,2.37
2022-08-21T16:47:51.262Z,3.53
2022-08-21T16:50:25.431Z,4.50
2022-08-21T16:52:54.418Z,3.90
2022-08-21T16:55:22.657Z,3.13
2022-08-21T16:57:50.811Z,3.33
2022-08-21T17:00:19.302Z,5.00
2022-08-21T17:02:53.392Z,3.27
2022-08-21T17:05:23.303Z,2.67
2022-08-21T17:07:51.689Z,3.07
2022-08-21T17:10:20.231Z,5.47
2022-08-21T17:12:56.692Z,4.53
2022-08-21T17:15:35.141Z,2.63
2022-08-21T17:18:07.526Z,2.30
2022-08-21T17:20:37.019Z,5.30
2022-08-21T17:23:05.735Z,6.67
2022-08-21T17:25:34.748Z,9.47
2022-08-21T17:28:04.467Z,3.10
2022-08-21T17:30:32.811Z,4.37
2022-08-21T17:33:02.141Z,3.30
2022-08-21T17:35:30.483Z,4.63
2022-08-21T17:37:59.985Z,5.87
2022-08-21T17:40:28.167Z,4.13
2022-08-21T17:42:56.383Z,3.30
2022-08-21T17:45:25.648Z,4.80
2022-08-21T17:47:54.209Z,3.47
2022-08-21T17:50:23.375Z,4.93
2022-08-21T17:52:51.920Z,2.37
2022-08-21T17:55:23.053Z,2.97
2022-08-21T17:57:53.930Z,4.13
2022-08-21T18:00:25.672Z,3.47
2022-08-21T18:03:14.752Z,3.33
2022-08-21T18:05:44.599Z,3.13
2022-08-21T18:08:13.408Z,3.33
2022-08-21T18:10:46.351Z,5.17
2022-08-21T18:13:20.321Z,4.90
2022-08-21T18:15:53.576Z,5.43
2022-08-21T18:18:22.446Z,5.07
2022-08-21T18:20:51.463Z,4.60
2022-08-21T18:23:19.610Z,6.27
2022-08-21T18:26:00.901Z,2.93
2022-08-21T18:28:29.870Z,2.90
2022-08-21T18:30:59.207Z,4.83
2022-08-21T18:33:27.544Z,7.80
2022-08-21T18:35:55.663Z,4.77
2022-08-21T18:38:28.818Z,3.60
2022-08-21T18:40:59.652Z,4.57
2022-08-21T18:43:28.490Z,3.77
2022-08-21T18:45:57.655Z,6.33
2022-08-21T18:48:26.900Z,4.90
2022-08-21T18:50:57.740Z,3.10
2022-08-21T18:53:29.245Z,5.17
2022-08-21T18:56:04.992Z,3.03
2022-08-21T18:58:33.954Z,4.47
2022-08-21T19:01:02.463Z,3.50
2022-08-21T19:03:30.658Z,5.63
2022-08-21T19:05:59.966Z,5.17
2022-08-21T19:08:28.733Z,5.60
2022-08-21T19:11:02.421Z,3.90
2022-08-21T19:13:31.829Z,5.03
2022-08-21T19:16:03.669Z,7.57
2022-08-21T19:18:35.993Z,5.17
2022-08-21T19:21:05.000Z,7.50
2022-08-21T19:26:27.466Z,4.20
2022-08-21T19:29:00.104Z,6.90
2022-08-21T19:31:33.850Z,5.23
2022-08-21T19:34:06.816Z,5.83
2022-08-21T19:36:36.230Z,7.87
2022-08-21T19:39:08.251Z,7.50
2022-08-21T19:42:00.306Z,6.40
2022-08-21T19:44:31.036Z,5.13
2022-08-21T19:47:02.014Z,4.43
2022-08-21T19:49:35.819Z,6.53
2022-08-21T19:52:13.905Z,4.97
2022-08-21T19:54:42.922Z,3.83
2022-08-21T19:57:13.709Z,3.07
2022-08-21T19:59:44.099Z,6.23
2022-08-21T20:02:18.500Z,6.97
2022-08-21T20:04:53.533Z,5.07
2022-08-21T20:07:26.803Z,6.30
2022-08-21T20:09:55.683Z,3.10
2022-08-21T20:12:26.642Z,8.07
2022-08-21T20:14:56.045Z,5.77
2022-08-21T20:17:25.152Z,7.93
2022-08-21T20:19:55.166Z,4.57
2022-08-21T20:22:24.002Z,3.97
2022-08-21T20:24:52.570Z,6.23
2022-08-21T20:27:28.752Z,3.20
2022-08-21T20:29:57.352Z,3.47
2022-08-21T20:32:27.216Z,3.63
2022-08-21T20:34:55.462Z,6.10
2022-08-21T20:37:36.112Z,6.23
2022-08-21T20:40:10.227Z,5.77
2022-08-21T20:45:34.188Z,3.17
2022-08-21T20:48:07.249Z,5.23
2022-08-21T20:50:41.831Z,3.70
2022-08-21T20:53:17.217Z,4.90
2022-08-21T20:55:49.648Z,5.80
2022-08-21T20:58:32.185Z,3.30
2022-08-21T21:01:06.187Z,6.77
2022-08-21T21:03:42.642Z,9.93
2022-08-21T21:06:20.022Z,4.57
2022-08-21T21:08:56.930Z,5.07
2022-08-21T21:11:31.937Z,5.30
2022-08-21T21:14:08.813Z,4.93
2022-08-21T21:16:45.893Z,5.20
2022-08-21T21:19:38.098Z,6.23
2022-08-21T21:22:11.525Z,3.03
2022-08-21T21:24:52.000Z,4.93
2022-08-21T21:27:34.896Z,4.47
2022-08-21T21:30:24.563Z,4.37
2022-08-21T21:32:54.262Z,3.73
2022-08-21T21:35:32.533Z,6.13
2022-08-21T21:38:11.590Z,4.63
2022-08-21T21:40:56.116Z,12.53
2022-08-21T21:43:49.278Z,14.27
2022-08-21T21:46:36.584Z,3.73
2022-08-21T21:49:33.932Z,7.10
2022-08-21T21:52:21.276Z,3.67
2022-08-21T21:55:18.385Z,3.20
2022-08-21T21:58:24.985Z,5.53
2022-08-21T22:01:04.397Z,7.90
2022-08-21T22:03:46.339Z,5.47
2022-08-21T22:06:28.351Z,4.03
2022-08-21T22:09:12.350Z,3.73
2022-08-21T22:12:04.564Z,3.40
2022-08-21T22:14:39.715Z,3.20
2022-08-21T22:17:37.251Z,3.77
2022-08-21T22:20:18.543Z,8.17
2022-08-21T22:22:48.357Z,8.67
2022-08-21T22:25:22.375Z,9.10
2022-08-21T22:27:58.816Z,5.40
2022-08-21T22:30:45.425Z,7.43
2022-08-21T22:33:19.995Z,3.87
2022-08-21T22:35:53.134Z,2.50
2022-08-21T22:38:33.420Z,5.07
2022-08-21T22:41:17.603Z,3.07
2022-08-21T22:43:56.639Z,5.30
2022-08-21T22:46:33.715Z,6.60
2022-08-21T22:49:10.420Z,3.97
2022-08-21T22:51:45.158Z,2.67
2022-08-21T22:54:24.714Z,10.87
2022-08-21T22:57:05.090Z,5.10
2022-08-21T22:59:40.475Z,6.67
2022-08-21T23:02:32.155Z,4.47
2022-08-21T23:05:10.344Z,6.30
2022-08-21T23:07:49.608Z,4.20
2022-08-21T23:10:27.601Z,5.23
2022-08-21T23:13:09.266Z,7.83
2022-08-21T23:15:49.772Z,3.87
2022-08-21T23:18:32.764Z,4.93
2022-08-21T23:21:11.414Z,4.97
2022-08-21T23:24:01.621Z,7.73
2022-08-21T23:26:46.944Z,6.07
2022-08-21T23:29:37.750Z,7.63
2022-08-21T23:35:49.157Z,4.40
2022-08-21T23:38:35.020Z,5.67
2022-08-21T23:41:34.142Z,8.40
2022-08-21T23:44:25.479Z,5.00
2022-08-21T23:47:29.438Z,5.27
2022-08-21T23:50:14.146Z,4.43
2022-08-21T23:53:04.921Z,4.13
2022-08-21T23:56:05.950Z,4.13
2022-08-21T23:58:50.347Z,7.00
